sensor_id;sensor_type;location;lat;lon;timestamp;pressure;altitude;pressure_sealevel;temperature;humidity
76605;BME280;73179;50.978;16.998;2024-02-16T00:01:05;100500.84;;;6.61;95.08
76605;BME280;73179;50.978;16.998;2024-02-16T00:03:36;100523.50;;;6.87;94.33
76605;BME280;73179;50.978;16.998;2024-02-16T00:06:02;100500.16;;;6.70;94.76
76605;BME280;73179;50.978;16.998;2024-02-16T00:08:28;100509.69;;;6.78;94.96
76605;BME280;73179;50.978;16.998;2024-02-16T00:10:55;100485.66;;;6.72;94.13
76605;BME280;73179;50.978;16.998;2024-02-16T00:13:24;100392.72;;;6.15;94.50
76605;BME280;73179;50.978;16.998;2024-02-16T00:15:50;100479.06;;;6.84;94.20
76605;BME280;73179;50.978;16.998;2024-02-16T00:18:17;100474.31;;;6.69;94.15
76605;BME280;73179;50.978;16.998;2024-02-16T00:20:43;100476.03;;;6.76;94.03
76605;BME280;73179;50.978;16.998;2024-02-16T00:23:12;100390.97;;;6.26;93.96
76605;BME280;73179;50.978;16.998;2024-02-16T00:25:38;100454.25;;;6.55;94.21
76605;BME280;73179;50.978;16.998;2024-02-16T00:28:08;100519.28;;;6.96;94.22
76605;BME280;73179;50.978;16.998;2024-02-16T00:30:34;100403.84;;;6.24;94.15
76605;BME280;73179;50.978;16.998;2024-02-16T00:33:00;100381.03;;;6.05;94.41
76605;BME280;73179;50.978;16.998;2024-02-16T00:35:26;100307.59;;;5.61;94.26
76605;BME280;73179;50.978;16.998;2024-02-16T00:37:53;100430.63;;;6.36;94.50
76605;BME280;73179;50.978;16.998;2024-02-16T00:40:19;100465.88;;;6.61;94.52
76605;BME280;73179;50.978;16.998;2024-02-16T00:42:45;100490.03;;;6.78;94.90
76605;BME280;73179;50.978;16.998;2024-02-16T00:45:11;100498.34;;;6.76;94.67
76605;BME280;73179;50.978;16.998;2024-02-16T00:47:40;100496.75;;;6.75;94.45
76605;BME280;73179;50.978;16.998;2024-02-16T00:50:06;100441.69;;;6.39;94.44
76605;BME280;73179;50.978;16.998;2024-02-16T00:52:35;100446.00;;;6.40;94.76
76605;BME280;73179;50.978;16.998;2024-02-16T00:55:01;100285.16;;;5.28;94.69
76605;BME280;73179;50.978;16.998;2024-02-16T00:57:27;100475.81;;;6.39;94.48
76605;BME280;73179;50.978;16.998;2024-02-16T00:59:53;100324.44;;;5.18;94.59
76605;BME280;73179;50.978;16.998;2024-02-16T01:02:20;100494.88;;;6.37;94.76
76605;BME280;73179;50.978;16.998;2024-02-16T01:04:48;100326.47;;;5.27;94.83
76605;BME280;73179;50.978;16.998;2024-02-16T01:07:16;100414.00;;;5.84;94.80
76605;BME280;73179;50.978;16.998;2024-02-16T01:09:43;100408.31;;;5.80;95.22
76605;BME280;73179;50.978;16.998;2024-02-16T01:12:09;100424.78;;;5.67;95.12
76605;BME280;73179;50.978;16.998;2024-02-16T01:14:35;100425.63;;;5.67;95.41
76605;BME280;73179;50.978;16.998;2024-02-16T01:17:01;100495.44;;;6.01;96.22
76605;BME280;73179;50.978;16.998;2024-02-16T01:19:27;100484.56;;;5.91;96.12
76605;BME280;73179;50.978;16.998;2024-02-16T01:21:55;100447.41;;;5.71;95.84
76605;BME280;73179;50.978;16.998;2024-02-16T01:24:24;100502.59;;;6.12;96.40
76605;BME280;73179;50.978;16.998;2024-02-16T01:26:50;100442.03;;;5.71;95.57
76605;BME280;73179;50.978;16.998;2024-02-16T01:29:16;100486.16;;;6.08;96.20
76605;BME280;73179;50.978;16.998;2024-02-16T01:31:45;100428.34;;;5.72;95.26
76605;BME280;73179;50.978;16.998;2024-02-16T01:34:13;100435.13;;;5.75;95.49
76605;BME280;73179;50.978;16.998;2024-02-16T01:36:39;100493.31;;;6.03;95.86
76605;BME280;73179;50.978;16.998;2024-02-16T01:39:05;100444.81;;;5.59;95.88
76605;BME280;73179;50.978;16.998;2024-02-16T01:41:33;100434.63;;;5.45;96.29
76605;BME280;73179;50.978;16.998;2024-02-16T01:44:00;100488.09;;;5.80;96.39
76605;BME280;73179;50.978;16.998;2024-02-16T01:46:28;100496.41;;;5.95;96.41
76605;BME280;73179;50.978;16.998;2024-02-16T01:48:55;100430.91;;;5.62;96.09
76605;BME280;73179;50.978;16.998;2024-02-16T01:51:25;100459.94;;;5.82;95.79
76605;BME280;73179;50.978;16.998;2024-02-16T01:53:53;100449.03;;;5.72;96.41
76605;BME280;73179;50.978;16.998;2024-02-16T01:56:23;100411.34;;;5.34;95.74
76605;BME280;73179;50.978;16.998;2024-02-16T01:58:53;100468.31;;;5.36;95.71
76605;BME280;73179;50.978;16.998;2024-02-16T02:01:21;100389.63;;;4.85;96.66
76605;BME280;73179;50.978;16.998;2024-02-16T02:03:49;100439.69;;;5.24;97.09
76605;BME280;73179;50.978;16.998;2024-02-16T02:06:17;100395.50;;;5.15;96.89
76605;BME280;73179;50.978;16.998;2024-02-16T02:08:44;100447.00;;;5.62;97.08
76605;BME280;73179;50.978;16.998;2024-02-16T02:11:12;100410.41;;;5.40;96.86
76605;BME280;73179;50.978;16.998;2024-02-16T02:13:39;100404.59;;;5.64;95.65
76605;BME280;73179;50.978;16.998;2024-02-16T02:16:10;100454.53;;;6.15;95.13
76605;BME280;73179;50.978;16.998;2024-02-16T02:18:37;100277.94;;;5.12;95.08
76605;BME280;73179;50.978;16.998;2024-02-16T02:21:08;100409.34;;;6.12;94.79
76605;BME280;73179;50.978;16.998;2024-02-16T02:23:35;100376.63;;;5.99;94.50
76605;BME280;73179;50.978;16.998;2024-02-16T02:26:06;100399.03;;;6.04;94.52
76605;BME280;73179;50.978;16.998;2024-02-16T02:28:34;100433.81;;;6.33;94.01
76605;BME280;73179;50.978;16.998;2024-02-16T02:31:02;100425.56;;;6.17;94.43
76605;BME280;73179;50.978;16.998;2024-02-16T02:33:31;100352.94;;;5.57;94.73
76605;BME280;73179;50.978;16.998;2024-02-16T02:35:58;100377.16;;;5.79;95.06
76605;BME280;73179;50.978;16.998;2024-02-16T02:38:26;100404.50;;;5.93;94.54
76605;BME280;73179;50.978;16.998;2024-02-16T02:40:54;100422.88;;;6.17;94.47
76605;BME280;73179;50.978;16.998;2024-02-16T02:43:22;100388.38;;;5.76;94.48
76605;BME280;73179;50.978;16.998;2024-02-16T02:45:50;100395.13;;;5.95;95.14
76605;BME280;73179;50.978;16.998;2024-02-16T02:48:17;100388.47;;;5.98;95.18
76605;BME280;73179;50.978;16.998;2024-02-16T02:50:45;100436.00;;;6.14;94.92
76605;BME280;73179;50.978;16.998;2024-02-16T02:53:12;100376.88;;;5.59;94.31
76605;BME280;73179;50.978;16.998;2024-02-16T02:55:41;100404.22;;;5.56;94.62
76605;BME280;73179;50.978;16.998;2024-02-16T02:58:08;100411.59;;;5.49;94.96
76605;BME280;73179;50.978;16.998;2024-02-16T03:00:36;100391.75;;;5.50;94.99
76605;BME280;73179;50.978;16.998;2024-02-16T03:03:03;100428.22;;;5.79;94.65
76605;BME280;73179;50.978;16.998;2024-02-16T03:05:31;100407.44;;;5.74;94.36
76605;BME280;73179;50.978;16.998;2024-02-16T03:07:59;100397.44;;;5.70;93.79
76605;BME280;73179;50.978;16.998;2024-02-16T03:10:29;100443.00;;;5.82;93.68
76605;BME280;73179;50.978;16.998;2024-02-16T03:13:01;100311.50;;;4.82;93.62
76605;BME280;73179;50.978;16.998;2024-02-16T03:15:30;100340.69;;;4.95;93.95
76605;BME280;73179;50.978;16.998;2024-02-16T03:17:57;100415.44;;;5.36;94.61
76605;BME280;73179;50.978;16.998;2024-02-16T03:20:25;100403.16;;;5.40;94.92
76605;BME280;73179;50.978;16.998;2024-02-16T03:22:52;100437.00;;;5.74;94.88
76605;BME280;73179;50.978;16.998;2024-02-16T03:25:20;100364.91;;;5.50;94.81
76605;BME280;73179;50.978;16.998;2024-02-16T03:27:48;100375.41;;;5.51;94.28
76605;BME280;73179;50.978;16.998;2024-02-16T03:30:16;100448.50;;;5.87;94.01
76605;BME280;73179;50.978;16.998;2024-02-16T03:32:48;100232.75;;;4.54;94.27
76605;BME280;73179;50.978;16.998;2024-02-16T03:35:17;100383.38;;;5.63;95.12
76605;BME280;73179;50.978;16.998;2024-02-16T03:37:44;100402.44;;;5.83;94.26
76605;BME280;73179;50.978;16.998;2024-02-16T03:40:12;100267.53;;;4.99;93.75
76605;BME280;73179;50.978;16.998;2024-02-16T03:42:39;100408.19;;;5.87;93.18
76605;BME280;73179;50.978;16.998;2024-02-16T03:45:10;100401.00;;;5.92;93.35
76605;BME280;73179;50.978;16.998;2024-02-16T03:47:41;100402.13;;;5.96;93.10
76605;BME280;73179;50.978;16.998;2024-02-16T03:50:13;100367.47;;;5.78;92.30
76605;BME280;73179;50.978;16.998;2024-02-16T03:52:41;100384.97;;;5.97;92.43
76605;BME280;73179;50.978;16.998;2024-02-16T03:55:09;100409.78;;;6.04;92.37
76605;BME280;73179;50.978;16.998;2024-02-16T03:57:37;100308.31;;;5.35;92.46
76605;BME280;73179;50.978;16.998;2024-02-16T04:00:06;100411.09;;;6.02;92.92
76605;BME280;73179;50.978;16.998;2024-02-16T04:02:33;100401.53;;;5.56;93.22
76605;BME280;73179;50.978;16.998;2024-02-16T04:05:01;100446.13;;;5.40;94.43
76605;BME280;73179;50.978;16.998;2024-02-16T04:07:30;100307.22;;;4.36;95.67
76605;BME280;73179;50.978;16.998;2024-02-16T04:09:58;100391.75;;;4.71;96.03
76605;BME280;73179;50.978;16.998;2024-02-16T04:12:26;100439.31;;;5.04;96.65
76605;BME280;73179;50.978;16.998;2024-02-16T04:14:54;100439.22;;;4.99;96.44
76605;BME280;73179;50.978;16.998;2024-02-16T04:17:21;100372.47;;;4.58;96.86
76605;BME280;73179;50.978;16.998;2024-02-16T04:19:49;100397.72;;;4.73;96.48
76605;BME280;73179;50.978;16.998;2024-02-16T04:22:16;100274.59;;;3.99;96.70
76605;BME280;73179;50.978;16.998;2024-02-16T04:24:44;100435.47;;;5.00;96.26
76605;BME280;73179;50.978;16.998;2024-02-16T04:27:11;100408.28;;;4.80;96.14
76605;BME280;73179;50.978;16.998;2024-02-16T04:29:39;100434.50;;;4.90;96.32
76605;BME280;73179;50.978;16.998;2024-02-16T04:32:08;100399.78;;;4.55;96.11
76605;BME280;73179;50.978;16.998;2024-02-16T04:34:39;100378.06;;;4.28;96.68
76605;BME280;73179;50.978;16.998;2024-02-16T04:37:05;100365.56;;;4.05;96.71
76605;BME280;73179;50.978;16.998;2024-02-16T04:39:34;100422.81;;;4.27;96.94
76605;BME280;73179;50.978;16.998;2024-02-16T04:42:02;100236.50;;;3.05;96.72
76605;BME280;73179;50.978;16.998;2024-02-16T04:44:30;100304.50;;;3.44;97.58
76605;BME280;73179;50.978;16.998;2024-02-16T04:46:57;100364.19;;;3.79;97.23
76605;BME280;73179;50.978;16.998;2024-02-16T04:49:25;100377.00;;;3.89;97.62
76605;BME280;73179;50.978;16.998;2024-02-16T04:51:52;100425.41;;;3.99;97.59
76605;BME280;73179;50.978;16.998;2024-02-16T04:54:19;100305.47;;;3.26;97.95
76605;BME280;73179;50.978;16.998;2024-02-16T04:56:46;100338.25;;;3.10;98.40
76605;BME280;73179;50.978;16.998;2024-02-16T04:59:16;100397.25;;;3.50;98.98
76605;BME280;73179;50.978;16.998;2024-02-16T05:01:44;100391.78;;;3.57;99.47
76605;BME280;73179;50.978;16.998;2024-02-16T05:04:14;100397.47;;;3.60;99.32
76605;BME280;73179;50.978;16.998;2024-02-16T05:06:43;100424.38;;;3.77;99.98
76605;BME280;73179;50.978;16.998;2024-02-16T05:09:13;100362.47;;;3.39;99.65
76605;BME280;73179;50.978;16.998;2024-02-16T05:11:44;100239.53;;;2.74;99.54
76605;BME280;73179;50.978;16.998;2024-02-16T05:14:12;100367.19;;;3.95;99.79
76605;BME280;73179;50.978;16.998;2024-02-16T05:16:43;100408.44;;;4.33;99.39
76605;BME280;73179;50.978;16.998;2024-02-16T05:19:12;100418.06;;;4.58;98.62
76605;BME280;73179;50.978;16.998;2024-02-16T05:21:39;100373.59;;;4.33;98.02
76605;BME280;73179;50.978;16.998;2024-02-16T05:24:07;100433.75;;;4.66;97.53
76605;BME280;73179;50.978;16.998;2024-02-16T05:26:36;100375.75;;;4.20;96.59
76605;BME280;73179;50.978;16.998;2024-02-16T05:29:04;100408.75;;;4.49;97.31
76605;BME280;73179;50.978;16.998;2024-02-16T05:31:32;100398.88;;;4.38;97.46
76605;BME280;73179;50.978;16.998;2024-02-16T05:34:01;100353.38;;;4.26;97.07
76605;BME280;73179;50.978;16.998;2024-02-16T05:36:28;100380.47;;;4.69;96.94
76605;BME280;73179;50.978;16.998;2024-02-16T05:39:02;100347.75;;;4.56;96.60
76605;BME280;73179;50.978;16.998;2024-02-16T05:41:47;100347.84;;;4.32;96.21
76605;BME280;73179;50.978;16.998;2024-02-16T05:44:14;100360.31;;;4.39;96.56
76605;BME280;73179;50.978;16.998;2024-02-16T05:46:44;100397.56;;;4.80;97.21
76605;BME280;73179;50.978;16.998;2024-02-16T05:49:12;100375.31;;;4.96;96.58
76605;BME280;73179;50.978;16.998;2024-02-16T05:51:40;100420.50;;;5.33;95.37
76605;BME280;73179;50.978;16.998;2024-02-16T05:54:08;100398.41;;;5.14;94.93
76605;BME280;73179;50.978;16.998;2024-02-16T05:56:35;100331.06;;;4.65;95.13
76605;BME280;73179;50.978;16.998;2024-02-16T05:59:06;100420.47;;;5.16;95.22
76605;BME280;73179;50.978;16.998;2024-02-16T06:01:38;100430.53;;;5.25;95.03
76605;BME280;73179;50.978;16.998;2024-02-16T06:04:09;100378.91;;;5.02;94.21
76605;BME280;73179;50.978;16.998;2024-02-16T06:06:36;100232.19;;;4.07;93.31
76605;BME280;73179;50.978;16.998;2024-02-16T06:09:04;100281.47;;;4.35;94.09
76605;BME280;73179;50.978;16.998;2024-02-16T06:11:36;100432.50;;;5.30;94.26
76605;BME280;73179;50.978;16.998;2024-02-16T06:14:09;100429.69;;;5.37;94.94
76605;BME280;73179;50.978;16.998;2024-02-16T06:16:52;100276.25;;;4.28;94.44
76605;BME280;73179;50.978;16.998;2024-02-16T06:19:21;100345.03;;;4.67;95.25
76605;BME280;73179;50.978;16.998;2024-02-16T06:21:49;100424.22;;;5.32;94.83
76605;BME280;73179;50.978;16.998;2024-02-16T06:24:17;100396.34;;;5.33;94.15
76605;BME280;73179;50.978;16.998;2024-02-16T06:26:46;100431.47;;;5.48;93.74
76605;BME280;73179;50.978;16.998;2024-02-16T06:29:14;100420.16;;;5.46;93.68
76605;BME280;73179;50.978;16.998;2024-02-16T06:31:42;100400.53;;;5.45;93.38
76605;BME280;73179;50.978;16.998;2024-02-16T06:34:11;100346.28;;;5.10;92.93
76605;BME280;73179;50.978;16.998;2024-02-16T06:36:38;100357.84;;;5.27;92.08
76605;BME280;73179;50.978;16.998;2024-02-16T06:39:07;100370.38;;;5.55;91.82
76605;BME280;73179;50.978;16.998;2024-02-16T06:41:36;100278.59;;;4.86;91.13
76605;BME280;73179;50.978;16.998;2024-02-16T06:44:05;100326.66;;;5.21;91.97
76605;BME280;73179;50.978;16.998;2024-02-16T06:46:32;100373.97;;;5.27;92.38
76605;BME280;73179;50.978;16.998;2024-02-16T06:49:00;100379.16;;;5.34;91.83
76605;BME280;73179;50.978;16.998;2024-02-16T06:51:28;100340.59;;;5.06;91.88
76605;BME280;73179;50.978;16.998;2024-02-16T06:53:56;100452.56;;;5.89;91.77
76605;BME280;73179;50.978;16.998;2024-02-16T06:56:24;100381.19;;;5.43;92.08
76605;BME280;73179;50.978;16.998;2024-02-16T06:58:52;100282.47;;;4.95;91.79
76605;BME280;73179;50.978;16.998;2024-02-16T07:01:20;100427.44;;;5.84;91.92
76605;BME280;73179;50.978;16.998;2024-02-16T07:03:49;100418.25;;;5.96;91.30
76605;BME280;73179;50.978;16.998;2024-02-16T07:06:18;100343.19;;;5.51;91.09
76605;BME280;73179;50.978;16.998;2024-02-16T07:08:47;100373.72;;;5.84;90.49
76605;BME280;73179;50.978;16.998;2024-02-16T07:11:14;100482.09;;;6.44;90.33
76605;BME280;73179;50.978;16.998;2024-02-16T07:13:42;100399.97;;;6.15;89.49
76605;BME280;73179;50.978;16.998;2024-02-16T07:16:10;100386.16;;;6.06;90.16
76605;BME280;73179;50.978;16.998;2024-02-16T07:18:38;100367.72;;;6.15;89.13
76605;BME280;73179;50.978;16.998;2024-02-16T07:21:06;100413.53;;;6.47;89.01
76605;BME280;73179;50.978;16.998;2024-02-16T07:23:40;100436.47;;;6.76;88.82
76605;BME280;73179;50.978;16.998;2024-02-16T07:26:08;100451.63;;;7.09;87.77
76605;BME280;73179;50.978;16.998;2024-02-16T07:28:36;100358.56;;;6.59;88.20
76605;BME280;73179;50.978;16.998;2024-02-16T07:31:08;100291.44;;;6.43;87.01
76605;BME280;73179;50.978;16.998;2024-02-16T07:33:43;100398.06;;;7.39;85.39
76605;BME280;73179;50.978;16.998;2024-02-16T07:36:13;100288.09;;;6.89;85.49
76605;BME280;73179;50.978;16.998;2024-02-16T07:38:41;100329.66;;;7.40;83.07
76605;BME280;73179;50.978;16.998;2024-02-16T07:41:07;100285.47;;;7.36;82.39
76605;BME280;73179;50.978;16.998;2024-02-16T07:43:35;100382.13;;;8.22;79.84
76605;BME280;73179;50.978;16.998;2024-02-16T07:46:01;100406.06;;;8.70;78.75
76605;BME280;73179;50.978;16.998;2024-02-16T07:48:30;100334.78;;;8.51;76.84
76605;BME280;73179;50.978;16.998;2024-02-16T07:50:57;100381.56;;;8.97;76.63
76605;BME280;73179;50.978;16.998;2024-02-16T07:53:30;100253.28;;;8.34;74.92
76605;BME280;73179;50.978;16.998;2024-02-16T07:55:57;100251.66;;;8.33;75.11
76605;BME280;73179;50.978;16.998;2024-02-16T07:58:25;100408.88;;;9.36;75.36
76605;BME280;73179;50.978;16.998;2024-02-16T08:00:52;100426.97;;;9.50;75.30
76605;BME280;73179;50.978;16.998;2024-02-16T08:03:22;100377.53;;;9.20;76.32
76605;BME280;73179;50.978;16.998;2024-02-16T08:05:50;100442.09;;;9.72;76.44
76605;BME280;73179;50.978;16.998;2024-02-16T08:08:22;100371.59;;;9.23;75.99
76605;BME280;73179;50.978;16.998;2024-02-16T08:10:49;100439.41;;;9.72;77.09
76605;BME280;73179;50.978;16.998;2024-02-16T08:13:24;100401.56;;;9.56;75.93
76605;BME280;73179;50.978;16.998;2024-02-16T08:15:51;100384.00;;;9.44;76.16
76605;BME280;73179;50.978;16.998;2024-02-16T08:18:18;100277.09;;;9.02;76.98
76605;BME280;73179;50.978;16.998;2024-02-16T08:20:45;100375.06;;;9.58;77.02
76605;BME280;73179;50.978;16.998;2024-02-16T08:23:14;100326.47;;;9.48;74.39
76605;BME280;73179;50.978;16.998;2024-02-16T08:25:40;100377.41;;;10.00;74.92
76605;BME280;73179;50.978;16.998;2024-02-16T08:28:08;100362.53;;;10.18;74.70
76605;BME280;73179;50.978;16.998;2024-02-16T08:30:34;100313.28;;;10.16;75.48
76605;BME280;73179;50.978;16.998;2024-02-16T08:33:02;100333.25;;;10.30;71.94
76605;BME280;73179;50.978;16.998;2024-02-16T08:35:28;100404.03;;;11.02;72.72
76605;BME280;73179;50.978;16.998;2024-02-16T08:37:57;100354.56;;;10.86;72.72
76605;BME280;73179;50.978;16.998;2024-02-16T08:40:24;100306.84;;;10.56;70.00
76605;BME280;73179;50.978;16.998;2024-02-16T08:42:52;100401.78;;;11.14;70.91
76605;BME280;73179;50.978;16.998;2024-02-16T08:45:20;100318.19;;;10.63;70.99
76605;BME280;73179;50.978;16.998;2024-02-16T08:47:47;100345.66;;;10.85;71.72
76605;BME280;73179;50.978;16.998;2024-02-16T08:50:15;100376.34;;;11.10;69.66
76605;BME280;73179;50.978;16.998;2024-02-16T08:52:46;100300.47;;;10.81;71.69
76605;BME280;73179;50.978;16.998;2024-02-16T08:55:13;100366.84;;;11.46;71.16
76605;BME280;73179;50.978;16.998;2024-02-16T08:57:40;100350.22;;;11.24;71.36
76605;BME280;73179;50.978;16.998;2024-02-16T09:00:07;100310.19;;;10.82;71.50
76605;BME280;73179;50.978;16.998;2024-02-16T09:02:35;100384.66;;;11.23;70.72
76605;BME280;73179;50.978;16.998;2024-02-16T09:05:02;100270.41;;;10.43;69.76
76605;BME280;73179;50.978;16.998;2024-02-16T09:07:31;100262.31;;;10.38;69.09
76605;BME280;73179;50.978;16.998;2024-02-16T09:09:58;100362.66;;;10.96;69.17
76605;BME280;73179;50.978;16.998;2024-02-16T09:12:28;100361.75;;;11.06;70.42
76605;BME280;73179;50.978;16.998;2024-02-16T09:14:55;100172.53;;;9.82;70.15
76605;BME280;73179;50.978;16.998;2024-02-16T09:17:22;100140.84;;;9.49;70.73
76605;BME280;73179;50.978;16.998;2024-02-16T09:19:49;100236.47;;;10.17;72.07
76605;BME280;73179;50.978;16.998;2024-02-16T09:22:16;100278.16;;;10.60;70.28
76605;BME280;73179;50.978;16.998;2024-02-16T09:24:44;100215.31;;;10.24;67.75
76605;BME280;73179;50.978;16.998;2024-02-16T09:27:15;100389.50;;;11.60;69.23
76605;BME280;73179;50.978;16.998;2024-02-16T09:29:43;100223.31;;;10.78;67.34
76605;BME280;73179;50.978;16.998;2024-02-16T09:32:11;100233.47;;;10.96;66.44
76605;BME280;73179;50.978;16.998;2024-02-16T09:34:38;100129.00;;;10.28;66.80
76605;BME280;73179;50.978;16.998;2024-02-16T09:37:08;100117.28;;;10.37;66.30
76605;BME280;73179;50.978;16.998;2024-02-16T09:39:38;100288.94;;;11.28;68.59
76605;BME280;73179;50.978;16.998;2024-02-16T09:42:11;100309.81;;;11.56;66.21
76605;BME280;73179;50.978;16.998;2024-02-16T09:44:41;100355.41;;;11.83;65.65
76605;BME280;73179;50.978;16.998;2024-02-16T09:47:12;100391.94;;;12.14;65.26
76605;BME280;73179;50.978;16.998;2024-02-16T09:49:40;100111.66;;;10.29;63.63
76605;BME280;73179;50.978;16.998;2024-02-16T09:52:10;100424.25;;;12.16;64.02
76605;BME280;73179;50.978;16.998;2024-02-16T09:54:41;100333.50;;;11.74;63.76
76605;BME280;73179;50.978;16.998;2024-02-16T09:57:19;100147.66;;;10.58;64.85
76605;BME280;73179;50.978;16.998;2024-02-16T09:59:47;100275.84;;;11.64;63.42
76605;BME280;73179;50.978;16.998;2024-02-16T10:02:21;100287.72;;;11.68;63.21
76605;BME280;73179;50.978;16.998;2024-02-16T10:04:49;100316.09;;;11.80;63.67
76605;BME280;73179;50.978;16.998;2024-02-16T10:07:19;100189.72;;;11.08;62.88
76605;BME280;73179;50.978;16.998;2024-02-16T10:09:56;100215.59;;;11.43;62.77
76605;BME280;73179;50.978;16.998;2024-02-16T10:12:23;100295.50;;;12.03;62.43
76605;BME280;73179;50.978;16.998;2024-02-16T10:14:55;100250.16;;;11.85;61.68
76605;BME280;73179;50.978;16.998;2024-02-16T10:17:25;100204.31;;;11.60;61.17
76605;BME280;73179;50.978;16.998;2024-02-16T10:19:59;100241.22;;;12.03;61.49
76605;BME280;73179;50.978;16.998;2024-02-16T10:22:35;100206.97;;;11.88;61.24
76605;BME280;73179;50.978;16.998;2024-02-16T10:25:08;100385.78;;;13.12;61.46
76605;BME280;73179;50.978;16.998;2024-02-16T10:27:41;100145.75;;;11.59;60.45
76605;BME280;73179;50.978;16.998;2024-02-16T10:30:09;100285.03;;;12.71;61.22
76605;BME280;73179;50.978;16.998;2024-02-16T10:32:39;100235.09;;;12.35;60.68
76605;BME280;73179;50.978;16.998;2024-02-16T10:35:09;100362.22;;;13.40;61.64
76605;BME280;73179;50.978;16.998;2024-02-16T10:37:39;100276.75;;;12.81;60.76
76605;BME280;73179;50.978;16.998;2024-02-16T10:40:08;100247.16;;;12.61;59.40
76605;BME280;73179;50.978;16.998;2024-02-16T10:42:41;100256.84;;;12.67;59.42
76605;BME280;73179;50.978;16.998;2024-02-16T10:45:09;100171.75;;;12.21;59.83
76605;BME280;73179;50.978;16.998;2024-02-16T10:47:38;100279.44;;;12.81;60.69
76605;BME280;73179;50.978;16.998;2024-02-16T10:50:06;100173.69;;;12.39;60.69
76605;BME280;73179;50.978;16.998;2024-02-16T10:52:41;100272.88;;;13.01;57.91
76605;BME280;73179;50.978;16.998;2024-02-16T10:55:15;100202.06;;;12.47;57.84
76605;BME280;73179;50.978;16.998;2024-02-16T10:57:47;100210.53;;;12.77;60.33
76605;BME280;73179;50.978;16.998;2024-02-16T11:00:21;100103.88;;;12.07;58.15
76605;BME280;73179;50.978;16.998;2024-02-16T11:02:57;100362.09;;;13.77;60.67
76605;BME280;73179;50.978;16.998;2024-02-16T11:05:41;100048.19;;;11.77;57.84
76605;BME280;73179;50.978;16.998;2024-02-16T11:08:18;100238.53;;;13.05;58.58
76605;BME280;73179;50.978;16.998;2024-02-16T11:10:58;100334.88;;;13.64;59.21
76605;BME280;73179;50.978;16.998;2024-02-16T11:13:28;100198.03;;;12.76;58.02
76605;BME280;73179;50.978;16.998;2024-02-16T11:16:03;100050.56;;;11.98;59.26
76605;BME280;73179;50.978;16.998;2024-02-16T11:18:37;100102.25;;;12.06;59.11
76605;BME280;73179;50.978;16.998;2024-02-16T11:21:07;100163.78;;;12.11;58.42
76605;BME280;73179;50.978;16.998;2024-02-16T11:23:44;100281.09;;;12.96;60.05
76605;BME280;73179;50.978;16.998;2024-02-16T11:26:13;100136.56;;;11.97;58.54
76605;BME280;73179;50.978;16.998;2024-02-16T11:28:48;100241.75;;;12.61;59.19
76605;BME280;73179;50.978;16.998;2024-02-16T11:31:17;100315.22;;;13.21;58.82
76605;BME280;73179;50.978;16.998;2024-02-16T11:33:46;100141.66;;;12.36;59.52
76605;BME280;73179;50.978;16.998;2024-02-16T11:36:14;100152.63;;;12.63;58.30
76605;BME280;73179;50.978;16.998;2024-02-16T11:38:48;100140.06;;;12.67;58.31
76605;BME280;73179;50.978;16.998;2024-02-16T11:41:17;100047.38;;;12.09;57.45
76605;BME280;73179;50.978;16.998;2024-02-16T11:43:49;100005.94;;;11.90;57.98
76605;BME280;73179;50.978;16.998;2024-02-16T11:46:17;100179.47;;;12.97;58.83
76605;BME280;73179;50.978;16.998;2024-02-16T11:48:46;100257.97;;;13.45;57.23
76605;BME280;73179;50.978;16.998;2024-02-16T11:51:16;100196.38;;;13.08;57.37
76605;BME280;73179;50.978;16.998;2024-02-16T11:53:58;100192.56;;;13.09;58.13
76605;BME280;73179;50.978;16.998;2024-02-16T11:56:27;100099.50;;;12.57;57.75
76605;BME280;73179;50.978;16.998;2024-02-16T11:59:01;100141.81;;;12.90;58.68
76605;BME280;73179;50.978;16.998;2024-02-16T12:01:30;100004.19;;;12.13;58.36
76605;BME280;73179;50.978;16.998;2024-02-16T12:03:58;100124.09;;;12.79;58.92
76605;BME280;73179;50.978;16.998;2024-02-16T12:06:25;100162.41;;;13.10;57.10
76605;BME280;73179;50.978;16.998;2024-02-16T12:08:54;99991.53;;;12.08;58.39
76605;BME280;73179;50.978;16.998;2024-02-16T12:11:25;100303.84;;;14.06;58.24
76605;BME280;73179;50.978;16.998;2024-02-16T12:13:57;100027.97;;;12.34;58.29
76605;BME280;73179;50.978;16.998;2024-02-16T12:16:29;100094.91;;;12.99;58.42
76605;BME280;73179;50.978;16.998;2024-02-16T12:19:04;100045.59;;;12.64;57.12
76605;BME280;73179;50.978;16.998;2024-02-16T12:21:36;100017.94;;;12.49;57.57
76605;BME280;73179;50.978;16.998;2024-02-16T12:24:08;100057.19;;;12.83;56.93
76605;BME280;73179;50.978;16.998;2024-02-16T12:26:38;100189.41;;;13.61;56.45
76605;BME280;73179;50.978;16.998;2024-02-16T12:29:12;100238.66;;;13.73;57.54
76605;BME280;73179;50.978;16.998;2024-02-16T12:31:40;100304.97;;;14.05;58.35
76605;BME280;73179;50.978;16.998;2024-02-16T12:34:11;100123.19;;;12.84;56.97
76605;BME280;73179;50.978;16.998;2024-02-16T12:36:42;100144.94;;;12.98;57.90
76605;BME280;73179;50.978;16.998;2024-02-16T12:39:12;100025.13;;;12.26;58.38
76605;BME280;73179;50.978;16.998;2024-02-16T12:41:43;100126.13;;;13.01;57.98
76605;BME280;73179;50.978;16.998;2024-02-16T12:44:12;100083.75;;;12.73;57.65
76605;BME280;73179;50.978;16.998;2024-02-16T12:46:40;99997.84;;;12.04;57.11
76605;BME280;73179;50.978;16.998;2024-02-16T12:49:18;99960.13;;;11.88;57.92
76605;BME280;73179;50.978;16.998;2024-02-16T12:51:49;100034.91;;;12.40;59.16
76605;BME280;73179;50.978;16.998;2024-02-16T12:54:19;100048.19;;;12.42;58.11
76605;BME280;73179;50.978;16.998;2024-02-16T12:56:48;100101.44;;;12.98;58.03